sensor_id;sensor_type;location;lat;lon;timestamp;P1;durP1;ratioP1;P2;durP2;ratioP2
65641;SDS011;52340;-6.720;108.544;2023-12-20T00:00:42;52.92;;;34.40;;
65641;SDS011;52340;-6.720;108.544;2023-12-20T00:01:43;55.83;;;35.92;;
65641;SDS011;52340;-6.720;108.544;2023-12-20T00:02:45;57.50;;;37.08;;
65641;SDS011;52340;-6.720;108.544;2023-12-20T00:03:47;56.08;;;36.42;;
65641;SDS011;52340;-6.720;108.544;2023-12-20T00:04:49;55.67;;;36.20;;
65641;SDS011;52340;-6.720;108.544;2023-12-20T00:05:50;54.30;;;36.50;;
65641;SDS011;52340;-6.720;108.544;2023-12-20T00:06:52;58.17;;;37.83;;
65641;SDS011;52340;-6.720;108.544;2023-12-20T00:07:54;53.85;;;37.60;;
65641;SDS011;52340;-6.720;108.544;2023-12-20T00:08:56;53.20;;;37.72;;
65641;SDS011;52340;-6.720;108.544;2023-12-20T00:09:59;59.30;;;37.40;;
65641;SDS011;52340;-6.720;108.544;2023-12-20T00:11:01;57.20;;;37.40;;
65641;SDS011;52340;-6.720;108.544;2023-12-20T00:12:03;51.00;;;36.20;;
65641;SDS011;52340;-6.720;108.544;2023-12-20T00:13:06;55.10;;;37.05;;
65641;SDS011;52340;-6.720;108.544;2023-12-20T00:14:08;54.00;;;36.80;;
65641;SDS011;52340;-6.720;108.544;2023-12-20T00:15:10;51.72;;;35.55;;
65641;SDS011;52340;-6.720;108.544;2023-12-20T00:16:12;56.72;;;37.03;;
65641;SDS011;52340;-6.720;108.544;2023-12-20T00:17:14;54.75;;;37.17;;
65641;SDS011;52340;-6.720;108.544;2023-12-20T00:18:18;56.67;;;36.95;;
65641;SDS011;52340;-6.720;108.544;2023-12-20T00:19:20;55.47;;;36.10;;
65641;SDS011;52340;-6.720;108.544;2023-12-20T00:20:22;50.88;;;35.58;;
65641;SDS011;52340;-6.720;108.544;2023-12-20T00:21:24;57.80;;;35.83;;
65641;SDS011;52340;-6.720;108.544;2023-12-20T00:22:25;54.97;;;36.78;;
65641;SDS011;52340;-6.720;108.544;2023-12-20T00:23:27;54.10;;;36.63;;
65641;SDS011;52340;-6.720;108.544;2023-12-20T00:24:29;53.17;;;37.42;;
65641;SDS011;52340;-6.720;108.544;2023-12-20T00:25:32;53.60;;;36.22;;
65641;SDS011;52340;-6.720;108.544;2023-12-20T00:26:34;54.55;;;36.97;;
65641;SDS011;52340;-6.720;108.544;2023-12-20T00:27:36;54.58;;;36.03;;
65641;SDS011;52340;-6.720;108.544;2023-12-20T00:28:41;61.38;;;39.28;;
65641;SDS011;52340;-6.720;108.544;2023-12-20T00:29:42;57.42;;;37.80;;
65641;SDS011;52340;-6.720;108.544;2023-12-20T00:30:44;59.88;;;38.35;;
65641;SDS011;52340;-6.720;108.544;2023-12-20T00:31:46;54.45;;;38.08;;
65641;SDS011;52340;-6.720;108.544;2023-12-20T00:32:48;57.70;;;37.83;;
65641;SDS011;52340;-6.720;108.544;2023-12-20T00:33:50;54.10;;;37.58;;
65641;SDS011;52340;-6.720;108.544;2023-12-20T00:34:51;56.33;;;38.53;;
65641;SDS011;52340;-6.720;108.544;2023-12-20T00:35:53;59.10;;;38.17;;
65641;SDS011;52340;-6.720;108.544;2023-12-20T00:36:55;60.33;;;37.50;;
65641;SDS011;52340;-6.720;108.544;2023-12-20T00:37:57;56.10;;;36.50;;
65641;SDS011;52340;-6.720;108.544;2023-12-20T00:38:59;57.08;;;36.30;;
65641;SDS011;52340;-6.720;108.544;2023-12-20T00:40:06;53.17;;;35.47;;
65641;SDS011;52340;-6.720;108.544;2023-12-20T00:41:10;54.80;;;36.00;;
65641;SDS011;52340;-6.720;108.544;2023-12-20T00:42:12;58.65;;;35.78;;
65641;SDS011;52340;-6.720;108.544;2023-12-20T00:43:14;52.28;;;35.70;;
65641;SDS011;52340;-6.720;108.544;2023-12-20T00:44:16;53.20;;;35.78;;
65641;SDS011;52340;-6.720;108.544;2023-12-20T00:45:17;50.90;;;35.03;;
65641;SDS011;52340;-6.720;108.544;2023-12-20T00:46:19;52.03;;;36.13;;
65641;SDS011;52340;-6.720;108.544;2023-12-20T00:47:21;56.22;;;35.42;;
65641;SDS011;52340;-6.720;108.544;2023-12-20T00:48:23;52.55;;;35.50;;
65641;SDS011;52340;-6.720;108.544;2023-12-20T00:49:24;50.50;;;34.08;;
65641;SDS011;52340;-6.720;108.544;2023-12-20T00:50:26;53.28;;;34.35;;
65641;SDS011;52340;-6.720;108.544;2023-12-20T00:51:28;51.38;;;35.42;;
65641;SDS011;52340;-6.720;108.544;2023-12-20T00:52:30;51.97;;;34.47;;
65641;SDS011;52340;-6.720;108.544;2023-12-20T00:53:31;50.67;;;34.60;;
65641;SDS011;52340;-6.720;108.544;2023-12-20T00:54:36;49.78;;;34.53;;
65641;SDS011;52340;-6.720;108.544;2023-12-20T00:55:38;50.78;;;34.60;;
65641;SDS011;52340;-6.720;108.544;2023-12-20T00:56:41;48.45;;;32.92;;
65641;SDS011;52340;-6.720;108.544;2023-12-20T00:57:43;50.13;;;33.25;;
65641;SDS011;52340;-6.720;108.544;2023-12-20T00:58:45;48.50;;;33.10;;
65641;SDS011;52340;-6.720;108.544;2023-12-20T00:59:47;49.28;;;33.35;;
65641;SDS011;52340;-6.720;108.544;2023-12-20T01:00:52;45.08;;;31.92;;
65641;SDS011;52340;-6.720;108.544;2023-12-20T01:01:54;48.85;;;33.10;;
65641;SDS011;52340;-6.720;108.544;2023-12-20T01:02:55;44.85;;;31.15;;
65641;SDS011;52340;-6.720;108.544;2023-12-20T01:03:57;44.25;;;32.47;;
65641;SDS011;52340;-6.720;108.544;2023-12-20T01:05:01;44.70;;;31.85;;
65641;SDS011;52340;-6.720;108.544;2023-12-20T01:06:03;44.00;;;29.75;;
65641;SDS011;52340;-6.720;108.544;2023-12-20T01:07:05;42.30;;;30.92;;
65641;SDS011;52340;-6.720;108.544;2023-12-20T01:08:07;46.47;;;31.27;;
65641;SDS011;52340;-6.720;108.544;2023-12-20T01:09:09;45.83;;;31.33;;
65641;SDS011;52340;-6.720;108.544;2023-12-20T01:10:11;44.75;;;30.48;;
65641;SDS011;52340;-6.720;108.544;2023-12-20T01:11:13;48.03;;;30.95;;
65641;SDS011;52340;-6.720;108.544;2023-12-20T01:12:17;43.70;;;30.58;;
65641;SDS011;52340;-6.720;108.544;2023-12-20T01:13:18;43.97;;;30.30;;
65641;SDS011;52340;-6.720;108.544;2023-12-20T01:14:20;45.10;;;30.58;;
65641;SDS011;52340;-6.720;108.544;2023-12-20T01:15:22;46.83;;;29.77;;
65641;SDS011;52340;-6.720;108.544;2023-12-20T01:16:24;44.20;;;29.58;;
65641;SDS011;52340;-6.720;108.544;2023-12-20T01:17:26;45.25;;;28.88;;
65641;SDS011;52340;-6.720;108.544;2023-12-20T01:18:27;43.40;;;29.95;;
65641;SDS011;52340;-6.720;108.544;2023-12-20T01:19:29;43.13;;;29.63;;
65641;SDS011;52340;-6.720;108.544;2023-12-20T01:20:31;44.92;;;30.08;;
65641;SDS011;52340;-6.720;108.544;2023-12-20T01:21:33;47.83;;;30.50;;
65641;SDS011;52340;-6.720;108.544;2023-12-20T01:22:34;42.97;;;29.48;;
65641;SDS011;52340;-6.720;108.544;2023-12-20T01:23:36;45.70;;;29.70;;
65641;SDS011;52340;-6.720;108.544;2023-12-20T01:24:38;45.58;;;31.25;;
65641;SDS011;52340;-6.720;108.544;2023-12-20T01:25:40;42.13;;;28.42;;
65641;SDS011;52340;-6.720;108.544;2023-12-20T01:26:41;44.92;;;29.85;;
65641;SDS011;52340;-6.720;108.544;2023-12-20T01:27:45;43.00;;;30.33;;
65641;SDS011;52340;-6.720;108.544;2023-12-20T01:28:47;43.60;;;29.80;;
65641;SDS011;52340;-6.720;108.544;2023-12-20T01:29:48;46.53;;;31.13;;
65641;SDS011;52340;-6.720;108.544;2023-12-20T01:30:50;44.05;;;30.33;;
65641;SDS011;52340;-6.720;108.544;2023-12-20T01:31:52;42.15;;;28.77;;
65641;SDS011;52340;-6.720;108.544;2023-12-20T01:32:54;43.88;;;29.05;;
65641;SDS011;52340;-6.720;108.544;2023-12-20T01:33:55;43.50;;;29.80;;
65641;SDS011;52340;-6.720;108.544;2023-12-20T01:34:57;41.30;;;29.00;;
65641;SDS011;52340;-6.720;108.544;2023-12-20T01:35:59;43.65;;;27.80;;
65641;SDS011;52340;-6.720;108.544;2023-12-20T01:37:01;37.47;;;26.42;;
65641;SDS011;52340;-6.720;108.544;2023-12-20T01:38:03;41.03;;;28.50;;
65641;SDS011;52340;-6.720;108.544;2023-12-20T01:39:05;39.13;;;27.67;;
65641;SDS011;52340;-6.720;108.544;2023-12-20T01:40:07;39.75;;;26.67;;
65641;SDS011;52340;-6.720;108.544;2023-12-20T01:41:09;39.75;;;26.38;;
65641;SDS011;52340;-6.720;108.544;2023-12-20T01:42:13;37.60;;;26.50;;
65641;SDS011;52340;-6.720;108.544;2023-12-20T01:43:17;36.33;;;25.00;;
65641;SDS011;52340;-6.720;108.544;2023-12-20T01:44:18;41.85;;;26.60;;
65641;SDS011;52340;-6.720;108.544;2023-12-20T01:45:20;39.50;;;27.13;;
65641;SDS011;52340;-6.720;108.544;2023-12-20T01:46:22;36.20;;;25.67;;
65641;SDS011;52340;-6.720;108.544;2023-12-20T01:47:24;38.40;;;26.08;;
65641;SDS011;52340;-6.720;108.544;2023-12-20T01:48:25;39.30;;;26.60;;
65641;SDS011;52340;-6.720;108.544;2023-12-20T01:49:28;37.40;;;25.75;;
65641;SDS011;52340;-6.720;108.544;2023-12-20T01:50:30;35.25;;;25.40;;
65641;SDS011;52340;-6.720;108.544;2023-12-20T01:51:40;37.92;;;26.05;;
65641;SDS011;52340;-6.720;108.544;2023-12-20T01:52:44;35.05;;;25.77;;
65641;SDS011;52340;-6.720;108.544;2023-12-20T01:53:46;37.25;;;25.50;;
65641;SDS011;52340;-6.720;108.544;2023-12-20T01:54:48;34.72;;;24.27;;
65641;SDS011;52340;-6.720;108.544;2023-12-20T01:55:50;35.40;;;25.25;;
65641;SDS011;52340;-6.720;108.544;2023-12-20T01:56:53;36.22;;;25.65;;
65641;SDS011;52340;-6.720;108.544;2023-12-20T01:57:55;34.63;;;25.52;;
65641;SDS011;52340;-6.720;108.544;2023-12-20T01:58:59;35.30;;;24.30;;
65641;SDS011;52340;-6.720;108.544;2023-12-20T02:00:02;36.05;;;25.67;;
65641;SDS011;52340;-6.720;108.544;2023-12-20T02:01:04;34.38;;;25.90;;
65641;SDS011;52340;-6.720;108.544;2023-12-20T02:02:05;39.75;;;25.27;;
65641;SDS011;52340;-6.720;108.544;2023-12-20T02:03:08;34.45;;;24.10;;
65641;SDS011;52340;-6.720;108.544;2023-12-20T02:04:10;33.28;;;24.67;;
65641;SDS011;52340;-6.720;108.544;2023-12-20T02:05:12;37.63;;;25.77;;
65641;SDS011;52340;-6.720;108.544;2023-12-20T02:06:14;33.97;;;24.38;;
65641;SDS011;52340;-6.720;108.544;2023-12-20T02:07:18;37.03;;;24.83;;
65641;SDS011;52340;-6.720;108.544;2023-12-20T02:08:20;34.85;;;24.60;;
65641;SDS011;52340;-6.720;108.544;2023-12-20T02:09:22;34.92;;;24.80;;
65641;SDS011;52340;-6.720;108.544;2023-12-20T02:10:24;37.05;;;24.27;;
65641;SDS011;52340;-6.720;108.544;2023-12-20T02:11:26;32.75;;;23.75;;
65641;SDS011;52340;-6.720;108.544;2023-12-20T02:12:28;34.13;;;24.00;;
65641;SDS011;52340;-6.720;108.544;2023-12-20T02:13:30;35.85;;;24.70;;
65641;SDS011;52340;-6.720;108.544;2023-12-20T02:14:34;34.63;;;23.67;;
65641;SDS011;52340;-6.720;108.544;2023-12-20T02:15:35;32.55;;;23.25;;
65641;SDS011;52340;-6.720;108.544;2023-12-20T02:16:37;35.30;;;23.95;;
65641;SDS011;52340;-6.720;108.544;2023-12-20T02:17:41;33.05;;;23.73;;
65641;SDS011;52340;-6.720;108.544;2023-12-20T02:18:44;35.72;;;24.17;;
65641;SDS011;52340;-6.720;108.544;2023-12-20T02:19:46;29.27;;;22.75;;
65641;SDS011;52340;-6.720;108.544;2023-12-20T02:20:47;32.25;;;23.52;;
65641;SDS011;52340;-6.720;108.544;2023-12-20T02:21:51;33.40;;;23.25;;
65641;SDS011;52340;-6.720;108.544;2023-12-20T02:23:09;31.58;;;21.80;;
65641;SDS011;52340;-6.720;108.544;2023-12-20T02:24:11;32.35;;;23.17;;
65641;SDS011;52340;-6.720;108.544;2023-12-20T02:25:13;33.22;;;23.05;;
65641;SDS011;52340;-6.720;108.544;2023-12-20T02:26:15;34.13;;;23.92;;
65641;SDS011;52340;-6.720;108.544;2023-12-20T02:27:17;34.80;;;23.58;;
65641;SDS011;52340;-6.720;108.544;2023-12-20T02:28:19;33.42;;;22.80;;
65641;SDS011;52340;-6.720;108.544;2023-12-20T02:29:21;34.13;;;23.25;;
65641;SDS011;52340;-6.720;108.544;2023-12-20T02:30:23;35.65;;;23.92;;
65641;SDS011;52340;-6.720;108.544;2023-12-20T02:31:25;33.13;;;23.67;;
65641;SDS011;52340;-6.720;108.544;2023-12-20T02:32:27;32.67;;;22.60;;
65641;SDS011;52340;-6.720;108.544;2023-12-20T02:33:29;33.33;;;23.55;;
65641;SDS011;52340;-6.720;108.544;2023-12-20T02:34:30;32.35;;;22.50;;
65641;SDS011;52340;-6.720;108.544;2023-12-20T02:35:32;33.13;;;22.08;;
65641;SDS011;52340;-6.720;108.544;2023-12-20T02:36:34;31.25;;;21.95;;
65641;SDS011;52340;-6.720;108.544;2023-12-20T02:37:37;35.60;;;22.27;;
65641;SDS011;52340;-6.720;108.544;2023-12-20T02:38:39;33.10;;;22.95;;
65641;SDS011;52340;-6.720;108.544;2023-12-20T02:39:41;31.33;;;21.60;;
65641;SDS011;52340;-6.720;108.544;2023-12-20T02:40:43;28.77;;;20.92;;
65641;SDS011;52340;-6.720;108.544;2023-12-20T02:41:45;27.50;;;20.75;;
65641;SDS011;52340;-6.720;108.544;2023-12-20T02:42:46;32.85;;;21.23;;
65641;SDS011;52340;-6.720;108.544;2023-12-20T02:43:48;30.25;;;21.70;;
65641;SDS011;52340;-6.720;108.544;2023-12-20T02:44:50;29.90;;;22.05;;
65641;SDS011;52340;-6.720;108.544;2023-12-20T02:45:52;29.00;;;22.30;;
65641;SDS011;52340;-6.720;108.544;2023-12-20T02:46:54;29.38;;;21.60;;
65641;SDS011;52340;-6.720;108.544;2023-12-20T02:47:56;28.75;;;21.65;;
65641;SDS011;52340;-6.720;108.544;2023-12-20T02:48:57;28.38;;;21.55;;
65641;SDS011;52340;-6.720;108.544;2023-12-20T02:49:59;29.55;;;21.77;;
65641;SDS011;52340;-6.720;108.544;2023-12-20T02:51:01;28.73;;;22.13;;
65641;SDS011;52340;-6.720;108.544;2023-12-20T02:52:03;33.65;;;20.63;;
65641;SDS011;52340;-6.720;108.544;2023-12-20T02:53:07;27.48;;;20.30;;
65641;SDS011;52340;-6.720;108.544;2023-12-20T02:54:09;27.63;;;20.30;;
65641;SDS011;52340;-6.720;108.544;2023-12-20T02:55:10;33.90;;;21.20;;
65641;SDS011;52340;-6.720;108.544;2023-12-20T02:56:12;32.28;;;21.63;;
65641;SDS011;52340;-6.720;108.544;2023-12-20T02:57:16;28.52;;;21.33;;
65641;SDS011;52340;-6.720;108.544;2023-12-20T02:58:18;28.02;;;20.23;;
65641;SDS011;52340;-6.720;108.544;2023-12-20T02:59:20;30.45;;;21.13;;
65641;SDS011;52340;-6.720;108.544;2023-12-20T03:00:24;32.40;;;20.10;;
65641;SDS011;52340;-6.720;108.544;2023-12-20T03:01:26;29.48;;;20.77;;
65641;SDS011;52340;-6.720;108.544;2023-12-20T03:02:28;31.35;;;21.30;;
65641;SDS011;52340;-6.720;108.544;2023-12-20T03:03:30;30.13;;;21.58;;
65641;SDS011;52340;-6.720;108.544;2023-12-20T03:04:32;29.58;;;21.00;;
65641;SDS011;52340;-6.720;108.544;2023-12-20T03:05:34;29.70;;;20.77;;
65641;SDS011;52340;-6.720;108.544;2023-12-20T03:06:36;27.42;;;21.30;;
65641;SDS011;52340;-6.720;108.544;2023-12-20T03:07:37;28.88;;;20.20;;
65641;SDS011;52340;-6.720;108.544;2023-12-20T03:08:41;27.48;;;20.60;;
65641;SDS011;52340;-6.720;108.544;2023-12-20T03:09:43;26.63;;;20.80;;
65641;SDS011;52340;-6.720;108.544;2023-12-20T03:10:44;29.00;;;21.08;;
65641;SDS011;52340;-6.720;108.544;2023-12-20T03:11:46;28.13;;;21.15;;
65641;SDS011;52340;-6.720;108.544;2023-12-20T03:12:48;28.33;;;20.70;;
65641;SDS011;52340;-6.720;108.544;2023-12-20T03:13:50;28.55;;;20.65;;
65641;SDS011;52340;-6.720;108.544;2023-12-20T03:14:51;26.02;;;20.10;;
65641;SDS011;52340;-6.720;108.544;2023-12-20T03:15:53;27.63;;;20.48;;
65641;SDS011;52340;-6.720;108.544;2023-12-20T03:16:55;29.85;;;21.13;;
65641;SDS011;52340;-6.720;108.544;2023-12-20T03:17:57;30.67;;;20.73;;
65641;SDS011;52340;-6.720;108.544;2023-12-20T03:19:00;27.65;;;20.23;;
65641;SDS011;52340;-6.720;108.544;2023-12-20T03:20:02;28.25;;;20.60;;
65641;SDS011;52340;-6.720;108.544;2023-12-20T03:21:05;26.20;;;20.30;;
65641;SDS011;52340;-6.720;108.544;2023-12-20T03:22:07;24.52;;;19.25;;
65641;SDS011;52340;-6.720;108.544;2023-12-20T03:23:09;30.60;;;20.17;;
65641;SDS011;52340;-6.720;108.544;2023-12-20T03:24:15;25.42;;;20.15;;
65641;SDS011;52340;-6.720;108.544;2023-12-20T03:25:17;27.25;;;20.17;;
65641;SDS011;52340;-6.720;108.544;2023-12-20T03:26:18;28.25;;;19.88;;
65641;SDS011;52340;-6.720;108.544;2023-12-20T03:27:20;27.08;;;19.83;;
65641;SDS011;52340;-6.720;108.544;2023-12-20T03:28:22;29.27;;;20.27;;
65641;SDS011;52340;-6.720;108.544;2023-12-20T03:29:24;24.65;;;19.20;;
65641;SDS011;52340;-6.720;108.544;2023-12-20T03:30:25;28.27;;;19.95;;
65641;SDS011;52340;-6.720;108.544;2023-12-20T03:31:27;27.15;;;19.27;;
65641;SDS011;52340;-6.720;108.544;2023-12-20T03:32:29;32.90;;;20.63;;
65641;SDS011;52340;-6.720;108.544;2023-12-20T03:33:34;27.48;;;19.85;;
65641;SDS011;52340;-6.720;108.544;2023-12-20T03:34:35;26.70;;;19.17;;
65641;SDS011;52340;-6.720;108.544;2023-12-20T03:35:37;36.03;;;19.80;;
65641;SDS011;52340;-6.720;108.544;2023-12-20T03:36:39;29.20;;;20.05;;
65641;SDS011;52340;-6.720;108.544;2023-12-20T03:37:41;27.05;;;19.60;;
65641;SDS011;52340;-6.720;108.544;2023-12-20T03:38:43;28.60;;;19.42;;
65641;SDS011;52340;-6.720;108.544;2023-12-20T03:39:46;24.80;;;19.35;;
65641;SDS011;52340;-6.720;108.544;2023-12-20T03:40:48;26.25;;;19.52;;
65641;SDS011;52340;-6.720;108.544;2023-12-20T03:41:50;25.98;;;18.77;;
65641;SDS011;52340;-6.720;108.544;2023-12-20T03:42:53;28.13;;;20.77;;
65641;SDS011;52340;-6.720;108.544;2023-12-20T03:43:54;24.48;;;19.95;;
65641;SDS011;52340;-6.720;108.544;2023-12-20T03:44:56;26.00;;;19.40;;
65641;SDS011;52340;-6.720;108.544;2023-12-20T03:46:04;26.70;;;20.17;;
65641;SDS011;52340;-6.720;108.544;2023-12-20T03:47:15;26.95;;;20.83;;
65641;SDS011;52340;-6.720;108.544;2023-12-20T03:48:16;26.80;;;20.10;;
65641;SDS011;52340;-6.720;108.544;2023-12-20T03:49:18;30.23;;;20.58;;
65641;SDS011;52340;-6.720;108.544;2023-12-20T03:50:20;28.52;;;20.52;;
65641;SDS011;52340;-6.720;108.544;2023-12-20T03:51:22;25.10;;;20.15;;
65641;SDS011;52340;-6.720;108.544;2023-12-20T03:52:24;30.35;;;21.25;;
65641;SDS011;52340;-6.720;108.544;2023-12-20T03:53:26;27.88;;;20.13;;
65641;SDS011;52340;-6.720;108.544;2023-12-20T03:54:27;25.83;;;19.48;;
65641;SDS011;52340;-6.720;108.544;2023-12-20T03:55:31;26.88;;;20.73;;
65641;SDS011;52340;-6.720;108.544;2023-12-20T03:56:33;29.33;;;21.15;;
65641;SDS011;52340;-6.720;108.544;2023-12-20T03:57:34;27.90;;;20.70;;
65641;SDS011;52340;-6.720;108.544;2023-12-20T03:58:36;32.70;;;22.65;;
65641;SDS011;52340;-6.720;108.544;2023-12-20T03:59:38;26.90;;;21.30;;
65641;SDS011;52340;-6.720;108.544;2023-12-20T04:00:40;27.67;;;21.77;;
65641;SDS011;52340;-6.720;108.544;2023-12-20T04:01:43;30.08;;;21.98;;
65641;SDS011;52340;-6.720;108.544;2023-12-20T04:02:45;29.42;;;21.75;;
65641;SDS011;52340;-6.720;108.544;2023-12-20T04:03:46;27.88;;;21.55;;
65641;SDS011;52340;-6.720;108.544;2023-12-20T04:04:48;32.53;;;22.40;;
65641;SDS011;52340;-6.720;108.544;2023-12-20T04:05:50;30.65;;;23.10;;
65641;SDS011;52340;-6.720;108.544;2023-12-20T04:06:52;29.98;;;22.38;;
65641;SDS011;52340;-6.720;108.544;2023-12-20T04:07:54;28.30;;;22.00;;
65641;SDS011;52340;-6.720;108.544;2023-12-20T04:08:55;28.20;;;22.48;;
65641;SDS011;52340;-6.720;108.544;2023-12-20T04:09:57;28.52;;;22.17;;
65641;SDS011;52340;-6.720;108.544;2023-12-20T04:11:01;31.83;;;22.58;;
65641;SDS011;52340;-6.720;108.544;2023-12-20T04:12:03;28.35;;;22.00;;
65641;SDS011;52340;-6.720;108.544;2023-12-20T04:13:05;31.98;;;21.85;;
65641;SDS011;52340;-6.720;108.544;2023-12-20T04:14:07;28.30;;;22.55;;
65641;SDS011;52340;-6.720;108.544;2023-12-20T04:15:09;26.38;;;21.52;;
65641;SDS011;52340;-6.720;108.544;2023-12-20T04:16:10;27.38;;;21.05;;
65641;SDS011;52340;-6.720;108.544;2023-12-20T04:17:12;29.70;;;21.35;;
65641;SDS011;52340;-6.720;108.544;2023-12-20T04:18:14;30.13;;;21.73;;
65641;SDS011;52340;-6.720;108.544;2023-12-20T04:19:16;26.40;;;20.88;;
65641;SDS011;52340;-6.720;108.544;2023-12-20T04:20:17;31.38;;;21.90;;
65641;SDS011;52340;-6.720;108.544;2023-12-20T04:21:19;30.02;;;21.83;;
65641;SDS011;52340;-6.720;108.544;2023-12-20T04:22:21;31.00;;;22.80;;
65641;SDS011;52340;-6.720;108.544;2023-12-20T04:23:23;27.48;;;19.75;;
65641;SDS011;52340;-6.720;108.544;2023-12-20T04:24:25;25.92;;;19.50;;
65641;SDS011;52340;-6.720;108.544;2023-12-20T04:25:27;25.65;;;18.77;;
65641;SDS011;52340;-6.720;108.544;2023-12-20T04:26:30;29.42;;;20.30;;
65641;SDS011;52340;-6.720;108.544;2023-12-20T04:27:32;29.33;;;20.55;;
65641;SDS011;52340;-6.720;108.544;2023-12-20T04:28:36;26.77;;;21.13;;
65641;SDS011;52340;-6.720;108.544;2023-12-20T04:29:38;28.92;;;20.60;;
65641;SDS011;52340;-6.720;108.544;2023-12-20T04:30:40;26.67;;;20.25;;
65641;SDS011;52340;-6.720;108.544;2023-12-20T04:31:42;28.50;;;21.10;;
65641;SDS011;52340;-6.720;108.544;2023-12-20T04:32:43;27.92;;;20.42;;
65641;SDS011;52340;-6.720;108.544;2023-12-20T04:33:45;28.45;;;21.27;;
65641;SDS011;52340;-6.720;108.544;2023-12-20T04:34:47;25.50;;;20.40;;
65641;SDS011;52340;-6.720;108.544;2023-12-20T04:35:49;28.38;;;21.77;;
65641;SDS011;52340;-6.720;108.544;2023-12-20T04:36:51;30.42;;;22.77;;
65641;SDS011;52340;-6.720;108.544;2023-12-20T04:37:52;27.98;;;23.20;;
65641;SDS011;52340;-6.720;108.544;2023-12-20T04:38:54;28.05;;;22.90;;
65641;SDS011;52340;-6.720;108.544;2023-12-20T04:39:56;30.27;;;23.50;;
65641;SDS011;52340;-6.720;108.544;2023-12-20T04:41:01;33.60;;;23.80;;
65641;SDS011;52340;-6.720;108.544;2023-12-20T04:42:07;26.25;;;20.70;;
65641;SDS011;52340;-6.720;108.544;2023-12-20T04:43:09;26.95;;;19.88;;
65641;SDS011;52340;-6.720;108.544;2023-12-20T04:44:11;26.33;;;19.65;;
65641;SDS011;52340;-6.720;108.544;2023-12-20T04:45:13;26.42;;;19.63;;
65641;SDS011;52340;-6.720;108.544;2023-12-20T04:46:14;25.60;;;20.05;;
65641;SDS011;52340;-6.720;108.544;2023-12-20T04:47:16;32.55;;;19.27;;
65641;SDS011;52340;-6.720;108.544;2023-12-20T04:48:18;31.58;;;19.88;;
65641;SDS011;52340;-6.720;108.544;2023-12-20T04:49:20;27.88;;;19.73;;
65641;SDS011;52340;-6.720;108.544;2023-12-20T04:50:22;26.63;;;19.00;;
65641;SDS011;52340;-6.720;108.544;2023-12-20T04:51:24;29.05;;;18.50;;
65641;SDS011;52340;-6.720;108.544;2023-12-20T04:52:29;27.25;;;18.92;;
65641;SDS011;52340;-6.720;108.544;2023-12-20T04:53:30;24.15;;;18.58;;
65641;SDS011;52340;-6.720;108.544;2023-12-20T04:54:32;24.10;;;17.70;;
65641;SDS011;52340;-6.720;108.544;2023-12-20T04:55:34;25.92;;;18.30;;
65641;SDS011;52340;-6.720;108.544;2023-12-20T04:56:36;27.00;;;19.08;;
65641;SDS011;52340;-6.720;108.544;2023-12-20T04:57:39;28.17;;;18.95;;
65641;SDS011;52340;-6.720;108.544;2023-12-20T04:58:41;26.13;;;19.13;;
65641;SDS011;52340;-6.720;108.544;2023-12-20T04:59:43;29.98;;;18.88;;
65641;SDS011;52340;-6.720;108.544;2023-12-20T05:00:45;26.88;;;18.75;;
65641;SDS011;52340;-6.720;108.544;2023-12-20T05:01:47;27.42;;;19.10;;
65641;SDS011;52340;-6.720;108.544;2023-12-20T05:02:51;28.15;;;18.42;;
65641;SDS011;52340;-6.720;108.544;2023-12-20T05:03:52;26.10;;;18.40;;
65641;SDS011;52340;-6.720;108.544;2023-12-20T05:04:54;26.15;;;18.73;;
65641;SDS011;52340;-6.720;108.544;2023-12-20T05:05:56;26.38;;;18.80;;
65641;SDS011;52340;-6.720;108.544;2023-12-20T05:07:06;24.48;;;18.50;;
65641;SDS011;52340;-6.720;108.544;2023-12-20T05:08:07;26.95;;;18.90;;
65641;SDS011;52340;-6.720;108.544;2023-12-20T05:09:09;24.70;;;18.08;;
65641;SDS011;52340;-6.720;108.544;2023-12-20T05:10:11;25.20;;;18.63;;
65641;SDS011;52340;-6.720;108.544;2023-12-20T05:11:13;25.30;;;18.98;;
65641;SDS011;52340;-6.720;108.544;2023-12-20T05:12:17;26.05;;;18.27;;
65641;SDS011;52340;-6.720;108.544;2023-12-20T05:13:21;24.70;;;18.20;;
65641;SDS011;52340;-6.720;108.544;2023-12-20T05:14:23;25.70;;;17.20;;
65641;SDS011;52340;-6.720;108.544;2023-12-20T05:15:25;22.55;;;16.77;;
65641;SDS011;52340;-6.720;108.544;2023-12-20T05:16:27;23.23;;;16.90;;
65641;SDS011;52340;-6.720;108.544;2023-12-20T05:17:29;22.17;;;15.27;;
65641;SDS011;52340;-6.720;108.544;2023-12-20T05:18:33;24.33;;;17.85;;
65641;SDS011;52340;-6.720;108.544;2023-12-20T05:19:35;24.90;;;17.65;;
65641;SDS011;52340;-6.720;108.544;2023-12-20T05:20:37;23.90;;;16.95;;
65641;SDS011;52340;-6.720;108.544;2023-12-20T05:21:38;21.65;;;16.75;;
65641;SDS011;52340;-6.720;108.544;2023-12-20T05:22:41;22.00;;;17.15;;
65641;SDS011;52340;-6.720;108.544;2023-12-20T05:23:43;24.27;;;17.25;;
65641;SDS011;52340;-6.720;108.544;2023-12-20T05:24:44;24.40;;;17.35;;
65641;SDS011;52340;-6.720;108.544;2023-12-20T05:25:46;23.65;;;17.73;;
65641;SDS011;52340;-6.720;108.544;2023-12-20T05:26:48;24.17;;;17.05;;
65641;SDS011;52340;-6.720;108.544;2023-12-20T05:27:50;23.08;;;17.42;;
65641;SDS011;52340;-6.720;108.544;2023-12-20T05:28:55;22.48;;;17.00;;
65641;SDS011;52340;-6.720;108.544;2023-12-20T05:29:57;22.13;;;16.58;;
65641;SDS011;52340;-6.720;108.544;2023-12-20T05:30:58;21.13;;;16.88;;
65641;SDS011;52340;-6.720;108.544;2023-12-20T05:32:00;23.38;;;17.60;;
65641;SDS011;52340;-6.720;108.544;2023-12-20T05:33:02;20.13;;;14.50;;
65641;SDS011;52340;-6.720;108.544;2023-12-20T05:34:04;19.83;;;13.18;;
65641;SDS011;52340;-6.720;108.544;2023-12-20T05:35:06;19.67;;;13.77;;
65641;SDS011;52340;-6.720;108.544;2023-12-20T05:36:08;18.15;;;12.52;;
65641;SDS011;52340;-6.720;108.544;2023-12-20T05:37:10;20.42;;;12.82;;
65641;SDS011;52340;-6.720;108.544;2023-12-20T05:38:11;20.92;;;14.50;;
65641;SDS011;52340;-6.720;108.544;2023-12-20T05:39:13;22.40;;;14.52;;
65641;SDS011;52340;-6.720;108.544;2023-12-20T05:40:15;20.05;;;13.55;;
65641;SDS011;52340;-6.720;108.544;2023-12-20T05:41:17;21.98;;;13.60;;
65641;SDS011;52340;-6.720;108.544;2023-12-20T05:42:19;20.52;;;13.98;;
65641;SDS011;52340;-6.720;108.544;2023-12-20T05:43:21;23.02;;;14.50;;
65641;SDS011;52340;-6.720;108.544;2023-12-20T05:44:24;22.50;;;14.25;;
65641;SDS011;52340;-6.720;108.544;2023-12-20T05:45:26;25.48;;;15.75;;
65641;SDS011;52340;-6.720;108.544;2023-12-20T05:46:28;24.45;;;16.15;;
65641;SDS011;52340;-6.720;108.544;2023-12-20T05:47:30;19.30;;;14.85;;
65641;SDS011;52340;-6.720;108.544;2023-12-20T05:48:32;24.27;;;15.43;;
65641;SDS011;52340;-6.720;108.544;2023-12-20T05:49:34;22.25;;;16.38;;
65641;SDS011;52340;-6.720;108.544;2023-12-20T05:50:35;21.55;;;15.63;;
65641;SDS011;52340;-6.720;108.544;2023-12-20T05:51:37;22.52;;;15.82;;
65641;SDS011;52340;-6.720;108.544;2023-12-20T05:52:41;21.48;;;15.40;;
65641;SDS011;52340;-6.720;108.544;2023-12-20T05:53:43;21.27;;;15.52;;